Rosholt, Wisconsin
Current Conditions -  °F | °C
As of 8:35 AM on Tuesday 21 Oct 2014 (Local Time) from KSTE Reporting Station
Overcast Overcast  
Wind Chill: 36°   Ceiling: 2000
Heat Index: 40°   Visibility: 10mi
Dew Point: 34°   Wind: 6mph
Humidity: 79%   Direction: 30°NNE
Pressure: 30.21"   Gusts: NA
Location:  44.63°N, 89.31°W
Report Text: KSTE 211335Z AUTO 03005KT 10SM OVC020 05/01 A3021 RMK AO2 P0001 T00450011
Loading
Personal Weather Stations






























Interactive Weather Map New forecast layout! Learn more

10-Day Weather Forecast

Advertisements
Track Severe Weather on mobile